Time;durP1;ratioP1;P1;durP2;ratioP2;P2;SDS_P1;SDS_P2;PMS_P1;PMS_P2;Temp;Humidity;BMP_temperature;BMP_pressure;BME280_temperature;BME280_humidity;BME280_pressure;Samples;Min_cycle;Max_cycle;Signal;HPM_P1;HPM_P2
2023/07/10 00:01:49;;;;;;;2.40;2.30;;;;;;;;;;5049574;28;20586;-65
2023/07/10 00:04:16;;;;;;;2.70;2.30;;;;;;;;;;5052743;28;20208;-66
2023/07/10 00:06:45;;;;;;;2.42;2.28;;;;;;;;;;5060771;28;20237;-65
2023/07/10 00:09:12;;;;;;;4.75;2.30;;;;;;;;;;5060312;28;20587;-65
2023/07/10 00:11:39;;;;;;;2.03;1.92;;;;;;;;;;5049299;28;20237;-65
2023/07/10 00:14:07;;;;;;;2.08;1.90;;;;;;;;;;5047953;28;20340;-64
2023/07/10 00:16:34;;;;;;;3.25;2.25;;;;;;;;;;5061848;28;20215;-66
2023/07/10 00:19:01;;;;;;;5.28;2.15;;;;;;;;;;5049753;28;20239;-65
2023/07/10 00:21:29;;;;;;;2.50;2.30;;;;;;;;;;5050978;28;20217;-66
2023/07/10 00:23:57;;;;;;;3.50;2.33;;;;;;;;;;5051420;28;20207;-66
2023/07/10 00:26:25;;;;;;;2.35;2.03;;;;;;;;;;5054517;28;20200;-65
2023/07/10 00:28:53;;;;;;;2.17;2.00;;;;;;;;;;5049460;28;20204;-65
2023/07/10 00:31:21;;;;;;;2.15;2.05;;;;;;;;;;5065344;28;20240;-65
2023/07/10 00:33:48;;;;;;;2.17;2.08;;;;;;;;;;5057772;28;20755;-65
2023/07/10 00:36:26;;;;;;;1.95;1.80;;;;;;;;;;5065128;28;20203;-65
2023/07/10 00:38:53;;;;;;;3.10;2.10;;;;;;;;;;5061421;28;20599;-65
2023/07/10 00:41:22;;;;;;;2.15;2.03;;;;;;;;;;5067884;28;20203;-65
2023/07/10 00:43:52;;;;;;;3.60;2.15;;;;;;;;;;5064015;28;20879;-65
2023/07/10 00:46:22;;;;;;;2.67;2.47;;;;;;;;;;5068131;28;20261;-65
2023/07/10 00:48:51;;;;;;;2.17;2.03;;;;;;;;;;5055531;28;20270;-65
2023/07/10 00:51:23;;;;;;;2.67;2.47;;;;;;;;;;5057372;28;20265;-65
2023/07/10 00:53:50;;;;;;;2.38;2.17;;;;;;;;;;5060669;28;20774;-65
2023/07/10 00:56:19;;;;;;;2.63;2.42;;;;;;;;;;5057002;28;20207;-65
2023/07/10 00:58:48;;;;;;;2.95;2.40;;;;;;;;;;5049172;28;20232;-66
2023/07/10 01:01:18;;;;;;;3.03;2.05;;;;;;;;;;5045356;28;21033;-65
2023/07/10 01:03:46;;;;;;;2.33;2.22;;;;;;;;;;5045173;28;20812;-65
2023/07/10 01:06:15;;;;;;;2.10;1.80;;;;;;;;;;5052436;28;20233;-65
2023/07/10 01:08:44;;;;;;;1.95;1.85;;;;;;;;;;5053009;28;20572;-66
2023/07/10 01:11:11;;;;;;;1.98;1.88;;;;;;;;;;5047463;28;20213;-66
2023/07/10 01:13:40;;;;;;;2.30;2.20;;;;;;;;;;5047247;28;20606;-66
2023/07/10 01:16:09;;;;;;;2.50;2.30;;;;;;;;;;5065199;28;20218;-65
2023/07/10 01:18:37;;;;;;;2.00;1.90;;;;;;;;;;5046833;28;20230;-65
2023/07/10 01:21:23;;;;;;;2.35;2.15;;;;;;;;;;5047420;28;20661;-65
2023/07/10 01:23:50;;;;;;;2.20;2.03;;;;;;;;;;5047322;28;20203;-65
2023/07/10 01:26:17;;;;;;;2.17;2.08;;;;;;;;;;5065543;28;20203;-65
2023/07/10 01:28:44;;;;;;;2.47;2.28;;;;;;;;;;5055196;28;20202;-65
2023/07/10 01:31:14;;;;;;;2.30;2.08;;;;;;;;;;5067148;28;20252;-65
2023/07/10 01:33:45;;;;;;;2.40;2.30;;;;;;;;;;5064868;28;20199;-65
2023/07/10 01:36:13;;;;;;;1.67;1.67;;;;;;;;;;5063986;28;20211;-65
2023/07/10 01:38:44;;;;;;;2.28;2.08;;;;;;;;;;5065656;28;20223;-64
2023/07/10 01:41:17;;;;;;;2.00;1.90;;;;;;;;;;5067189;28;20211;-65
2023/07/10 01:43:44;;;;;;;2.03;1.92;;;;;;;;;;5067590;28;20227;-65
2023/07/10 01:46:18;;;;;;;2.58;2.03;;;;;;;;;;5048214;28;20203;-65
2023/07/10 01:48:46;;;;;;;2.28;2.08;;;;;;;;;;5056749;28;20215;-65
2023/07/10 01:51:13;;;;;;;3.30;2.00;;;;;;;;;;5065280;28;20310;-65
2023/07/10 01:53:43;;;;;;;3.00;2.25;;;;;;;;;;5061868;28;20674;-65
2023/07/10 01:56:10;;;;;;;4.68;2.15;;;;;;;;;;5056232;28;20199;-65
2023/07/10 01:58:37;;;;;;;2.13;1.95;;;;;;;;;;5064373;28;20222;-65
2023/07/10 02:01:04;;;;;;;2.90;2.13;;;;;;;;;;5063953;28;20207;-65
2023/07/10 02:03:31;;;;;;;2.33;2.22;;;;;;;;;;5066943;28;20220;-65
2023/07/10 02:05:58;;;;;;;2.55;2.35;;;;;;;;;;5067118;28;20243;-65
2023/07/10 02:08:25;;;;;;;4.15;2.25;;;;;;;;;;5065799;28;20203;-65
2023/07/10 02:10:54;;;;;;;2.00;1.88;;;;;;;;;;5065256;28;20235;-64
2023/07/10 02:13:21;;;;;;;3.08;2.22;;;;;;;;;;5052887;28;20216;-65
2023/07/10 02:15:48;;;;;;;2.55;2.40;;;;;;;;;;5064379;28;20298;-65
2023/07/10 02:18:15;;;;;;;2.78;2.03;;;;;;;;;;5066749;28;20237;-65
2023/07/10 02:20:43;;;;;;;2.25;2.15;;;;;;;;;;5064815;28;20207;-65
2023/07/10 02:23:10;;;;;;;2.28;2.13;;;;;;;;;;5067241;28;20230;-65
2023/07/10 02:25:37;;;;;;;2.35;2.05;;;;;;;;;;5066167;28;20207;-65
2023/07/10 02:28:06;;;;;;;2.25;2.10;;;;;;;;;;5055992;28;20210;-65
2023/07/10 02:30:33;;;;;;;2.50;2.30;;;;;;;;;;5060406;28;20215;-65
2023/07/10 02:33:00;;;;;;;2.28;2.17;;;;;;;;;;5050769;28;20218;-66
2023/07/10 02:35:27;;;;;;;1.95;1.85;;;;;;;;;;5050615;28;20204;-65
2023/07/10 02:37:54;;;;;;;3.00;2.35;;;;;;;;;;5050602;28;20207;-65
2023/07/10 02:40:21;;;;;;;3.42;2.40;;;;;;;;;;5058464;28;20226;-65
2023/07/10 02:42:48;;;;;;;2.45;2.25;;;;;;;;;;5068577;28;20230;-65
2023/07/10 02:45:18;;;;;;;3.80;2.97;;;;;;;;;;5069308;28;20203;-65
2023/07/10 02:47:45;;;;;;;3.20;3.00;;;;;;;;;;5056556;28;20211;-65
2023/07/10 02:50:12;;;;;;;3.17;2.97;;;;;;;;;;5067036;28;20199;-65
2023/07/10 02:52:40;;;;;;;4.10;3.83;;;;;;;;;;5066369;28;20208;-66
2023/07/10 02:55:07;;;;;;;3.13;2.92;;;;;;;;;;5056085;28;20545;-65
2023/07/10 02:57:34;;;;;;;3.08;2.85;;;;;;;;;;5051719;28;20689;-65
2023/07/10 03:00:01;;;;;;;3.47;3.17;;;;;;;;;;5065357;28;20273;-65
2023/07/10 03:02:29;;;;;;;4.65;3.55;;;;;;;;;;5055254;28;20226;-66
2023/07/10 03:04:56;;;;;;;4.60;3.88;;;;;;;;;;5049845;28;20243;-65
2023/07/10 03:07:23;;;;;;;4.80;4.40;;;;;;;;;;5064487;28;20210;-65
2023/07/10 03:09:50;;;;;;;5.60;5.10;;;;;;;;;;5068462;28;20203;-65
2023/07/10 03:12:17;;;;;;;5.60;5.00;;;;;;;;;;5064441;28;20218;-65
2023/07/10 03:14:44;;;;;;;6.95;5.85;;;;;;;;;;5061664;28;20215;-65
2023/07/10 03:17:11;;;;;;;8.85;6.60;;;;;;;;;;5066246;28;20203;-64
2023/07/10 03:19:40;;;;;;;10.20;6.40;;;;;;;;;;5068307;28;20273;-64
2023/07/10 03:22:07;;;;;;;8.77;6.97;;;;;;;;;;5064929;28;20207;-65
2023/07/10 03:24:34;;;;;;;8.40;6.47;;;;;;;;;;5053017;28;20211;-65
2023/07/10 03:27:01;;;;;;;8.68;6.88;;;;;;;;;;5049801;28;20312;-65
2023/07/10 03:29:28;;;;;;;7.50;6.38;;;;;;;;;;5049867;28;20739;-65
2023/07/10 03:31:55;;;;;;;7.55;5.97;;;;;;;;;;5049991;28;20265;-65
2023/07/10 03:34:22;;;;;;;7.70;6.95;;;;;;;;;;5049918;28;20277;-65
2023/07/10 03:36:51;;;;;;;7.78;6.32;;;;;;;;;;5063272;28;20200;-65
2023/07/10 03:39:18;;;;;;;6.70;6.00;;;;;;;;;;5049923;28;20277;-65
2023/07/10 03:41:45;;;;;;;10.43;7.15;;;;;;;;;;5053348;28;20200;-65
2023/07/10 03:44:13;;;;;;;6.45;5.85;;;;;;;;;;5059944;28;20223;-65
2023/07/10 03:46:40;;;;;;;5.00;4.63;;;;;;;;;;5068334;28;20639;-65
2023/07/10 03:49:07;;;;;;;5.50;5.00;;;;;;;;;;5060609;28;20199;-65
2023/07/10 03:51:34;;;;;;;7.82;5.78;;;;;;;;;;5052403;28;20211;-64
2023/07/10 03:54:02;;;;;;;5.03;4.53;;;;;;;;;;5063097;28;20207;-64
2023/07/10 03:56:29;;;;;;;5.05;4.65;;;;;;;;;;5065199;28;20211;-65
2023/07/10 03:58:56;;;;;;;5.35;4.05;;;;;;;;;;5067332;28;20219;-65
2023/07/10 04:01:24;;;;;;;4.10;3.83;;;;;;;;;;5060851;28;20211;-65
2023/07/10 04:03:51;;;;;;;4.30;3.90;;;;;;;;;;5057377;28;20203;-65
2023/07/10 04:06:18;;;;;;;4.18;3.88;;;;;;;;;;5063440;28;20234;-65
2023/07/10 04:08:46;;;;;;;9.48;4.50;;;;;;;;;;5058096;28;20199;-65
2023/07/10 04:11:16;;;;;;;4.38;4.07;;;;;;;;;;5053519;28;20798;-65
2023/07/10 04:13:43;;;;;;;4.38;3.75;;;;;;;;;;5067337;28;20203;-65
2023/07/10 04:16:12;;;;;;;5.07;4.65;;;;;;;;;;5062930;28;20233;-65
2023/07/10 04:18:40;;;;;;;5.13;4.72;;;;;;;;;;5069236;28;20278;-65
2023/07/10 04:21:08;;;;;;;5.63;5.05;;;;;;;;;;5069097;28;20215;-65
2023/07/10 04:23:35;;;;;;;6.22;5.53;;;;;;;;;;5067737;28;20681;-65
2023/07/10 04:26:02;;;;;;;6.05;5.50;;;;;;;;;;5069262;28;20203;-65
2023/07/10 04:28:30;;;;;;;7.70;6.20;;;;;;;;;;5069269;28;20207;-65
2023/07/10 04:30:57;;;;;;;9.48;6.57;;;;;;;;;;5051100;28;20199;-65
2023/07/10 04:33:24;;;;;;;9.07;6.38;;;;;;;;;;5049303;28;20597;-65
2023/07/10 04:35:56;;;;;;;9.07;6.03;;;;;;;;;;5060303;28;20215;-67
2023/07/10 04:38:24;;;;;;;8.35;6.70;;;;;;;;;;5068710;28;20631;-65
2023/07/10 04:40:55;;;;;;;10.50;7.03;;;;;;;;;;5068093;28;20229;-65
2023/07/10 04:43:22;;;;;;;8.02;6.78;;;;;;;;;;5065283;28;20318;-65
2023/07/10 04:45:50;;;;;;;11.00;7.70;;;;;;;;;;5048825;28;20211;-65
2023/07/10 04:48:17;;;;;;;10.38;7.35;;;;;;;;;;5048109;28;20234;-66
2023/07/10 04:50:47;;;;;;;8.57;6.80;;;;;;;;;;5048946;28;20702;-65
2023/07/10 04:53:14;;;;;;;10.88;7.10;;;;;;;;;;5048992;28;20296;-65
2023/07/10 04:55:41;;;;;;;10.65;7.53;;;;;;;;;;5048857;28;20682;-65
2023/07/10 04:58:08;;;;;;;10.43;8.05;;;;;;;;;;5049049;28;20673;-65
2023/07/10 05:00:35;;;;;;;10.93;7.40;;;;;;;;;;5056444;28;20607;-65
2023/07/10 05:03:04;;;;;;;12.23;8.18;;;;;;;;;;5047791;28;20204;-64
2023/07/10 05:05:31;;;;;;;12.90;8.07;;;;;;;;;;5047565;28;20301;-64
2023/07/10 05:08:00;;;;;;;12.60;8.45;;;;;;;;;;5047669;28;20207;-62
2023/07/10 05:10:27;;;;;;;11.82;8.50;;;;;;;;;;5050553;28;20211;-63
2023/07/10 05:12:55;;;;;;;13.32;8.93;;;;;;;;;;5047940;28;20203;-63
2023/07/10 05:15:22;;;;;;;12.60;8.05;;;;;;;;;;5061075;28;20207;-60
2023/07/10 05:17:49;;;;;;;11.48;9.57;;;;;;;;;;5067746;28;20239;-60
2023/07/10 05:20:17;;;;;;;15.82;9.18;;;;;;;;;;5061585;28;20647;-61
2023/07/10 05:22:44;;;;;;;9.82;8.20;;;;;;;;;;5057578;28;20225;-62
2023/07/10 05:25:11;;;;;;;9.05;7.80;;;;;;;;;;5067176;28;20211;-60
2023/07/10 05:27:38;;;;;;;13.63;10.02;;;;;;;;;;5047972;28;20227;-60
2023/07/10 05:30:06;;;;;;;14.55;9.30;;;;;;;;;;5057945;28;20204;-60
2023/07/10 05:32:34;;;;;;;13.85;9.20;;;;;;;;;;5064868;28;20199;-60
2023/07/10 05:35:01;;;;;;;12.68;8.52;;;;;;;;;;5057591;28;20236;-61
2023/07/10 05:37:29;;;;;;;15.95;8.88;;;;;;;;;;5060282;28;20203;-59
2023/07/10 05:39:56;;;;;;;15.85;9.35;;;;;;;;;;5051466;28;20238;-60
2023/07/10 05:42:23;;;;;;;10.68;8.70;;;;;;;;;;5065788;28;20264;-60
2023/07/10 05:44:50;;;;;;;11.52;8.25;;;;;;;;;;5065106;28;20206;-60
2023/07/10 05:50:19;;;;;;;11.73;8.90;;;;;;;;;;5026590;28;20237;-60
2023/07/10 05:52:47;;;;;;;11.15;9.13;;;;;;;;;;5054683;28;20207;-60
2023/07/10 05:55:14;;;;;;;14.77;9.85;;;;;;;;;;5053838;28;20674;-60
2023/07/10 05:57:41;;;;;;;11.18;8.95;;;;;;;;;;5056287;28;20207;-60
2023/07/10 06:00:09;;;;;;;12.20;9.50;;;;;;;;;;5070356;28;20238;-60
2023/07/10 06:02:36;;;;;;;16.02;9.13;;;;;;;;;;5071066;28;20785;-59
2023/07/10 06:05:03;;;;;;;11.02;8.85;;;;;;;;;;5070868;28;20234;-60
2023/07/10 06:07:30;;;;;;;10.13;8.75;;;;;;;;;;5052768;28;20681;-60
2023/07/10 06:09:59;;;;;;;14.20;9.40;;;;;;;;;;5052188;28;20352;-60
2023/07/10 06:12:26;;;;;;;12.85;9.35;;;;;;;;;;5070767;28;20207;-59
2023/07/10 06:14:53;;;;;;;12.45;9.30;;;;;;;;;;5070790;28;20272;-60
2023/07/10 06:17:20;;;;;;;13.15;9.27;;;;;;;;;;5070827;28;20222;-60
2023/07/10 06:19:47;;;;;;;11.30;8.50;;;;;;;;;;5070026;28;20230;-59
2023/07/10 06:22:14;;;;;;;15.18;8.50;;;;;;;;;;5069920;28;20213;-59
2023/07/10 06:24:41;;;;;;;10.57;8.75;;;;;;;;;;5050392;28;20658;-62
2023/07/10 06:27:10;;;;;;;11.60;9.48;;;;;;;;;;5054359;28;20207;-61
2023/07/10 06:29:38;;;;;;;10.82;8.23;;;;;;;;;;5058971;28;20207;-61
2023/07/10 06:32:05;;;;;;;12.15;9.10;;;;;;;;;;5050124;28;20211;-58
2023/07/10 06:34:32;;;;;;;12.73;9.27;;;;;;;;;;5050425;28;20583;-59
2023/07/10 06:36:59;;;;;;;13.60;10.23;;;;;;;;;;5050366;28;20261;-58
2023/07/10 06:39:27;;;;;;;12.27;9.40;;;;;;;;;;5050178;28;20776;-59
2023/07/10 06:41:55;;;;;;;12.55;9.63;;;;;;;;;;5050279;28;20215;-60
2023/07/10 06:44:23;;;;;;;14.20;9.30;;;;;;;;;;5065857;28;20232;-60
2023/07/10 06:46:50;;;;;;;13.18;9.60;;;;;;;;;;5049775;28;20569;-62
2023/07/10 06:49:17;;;;;;;13.32;9.73;;;;;;;;;;5050107;28;20200;-60
2023/07/10 06:51:44;;;;;;;11.05;9.18;;;;;;;;;;5057631;28;20211;-61
2023/07/10 06:54:11;;;;;;;15.25;9.43;;;;;;;;;;5070650;28;20207;-65
2023/07/10 06:56:38;;;;;;;11.48;9.10;;;;;;;;;;5062351;28;20257;-62
2023/07/10 06:59:06;;;;;;;11.93;8.80;;;;;;;;;;5086988;28;20219;-62
2023/07/10 07:01:34;;;;;;;12.43;10.02;;;;;;;;;;5054026;28;20231;-62
2023/07/10 07:04:01;;;;;;;13.98;9.73;;;;;;;;;;5048127;28;20219;-62
2023/07/10 07:06:28;;;;;;;13.00;9.68;;;;;;;;;;5049783;28;20250;-62
2023/07/10 07:08:55;;;;;;;13.60;9.40;;;;;;;;;;5049845;28;20212;-62
2023/07/10 07:11:22;;;;;;;11.88;9.57;;;;;;;;;;5051756;28;20212;-63
2023/07/10 07:13:49;;;;;;;10.68;8.38;;;;;;;;;;5057973;28;20211;-63
2023/07/10 07:16:16;;;;;;;11.90;9.63;;;;;;;;;;5050877;28;20618;-62
2023/07/10 07:18:44;;;;;;;13.52;9.13;;;;;;;;;;5049865;28;20277;-62
2023/07/10 07:21:13;;;;;;;15.02;9.90;;;;;;;;;;5064398;28;20273;-63
2023/07/10 07:23:41;;;;;;;16.50;9.52;;;;;;;;;;5067217;28;20733;-63
2023/07/10 07:26:08;;;;;;;12.30;10.18;;;;;;;;;;5054761;28;20286;-63
2023/07/10 07:28:35;;;;;;;13.05;9.63;;;;;;;;;;5052290;28;20267;-64
2023/07/10 07:31:03;;;;;;;14.55;9.00;;;;;;;;;;5056486;28;20203;-63
2023/07/10 07:33:30;;;;;;;11.60;9.77;;;;;;;;;;5069359;28;20211;-62
2023/07/10 07:36:00;;;;;;;11.10;8.52;;;;;;;;;;5059588;28;20249;-63
2023/07/10 07:38:27;;;;;;;13.23;9.10;;;;;;;;;;5050749;28;20871;-63
2023/07/10 07:40:54;;;;;;;11.93;9.35;;;;;;;;;;5049178;28;20227;-63
2023/07/10 07:43:21;;;;;;;10.13;8.93;;;;;;;;;;5064052;28;20223;-63
2023/07/10 07:45:51;;;;;;;11.63;8.75;;;;;;;;;;5062051;28;20214;-64
2023/07/10 07:48:18;;;;;;;11.68;9.35;;;;;;;;;;5062609;28;20210;-63
2023/07/10 07:50:54;;;;;;;12.02;8.63;;;;;;;;;;5068991;28;20206;-63
2023/07/10 07:53:23;;;;;;;11.70;8.60;;;;;;;;;;5064362;28;20200;-64
2023/07/10 07:55:50;;;;;;;13.07;9.35;;;;;;;;;;5050954;28;20237;-64
2023/07/10 07:58:17;;;;;;;11.40;9.23;;;;;;;;;;5048798;28;20212;-64
2023/07/10 08:00:44;;;;;;;12.65;9.13;;;;;;;;;;5048619;28;20239;-64
2023/07/10 08:03:12;;;;;;;14.07;9.15;;;;;;;;;;5049120;28;20321;-64
2023/07/10 08:05:39;;;;;;;10.80;8.68;;;;;;;;;;5048298;28;20264;-63
2023/07/10 08:08:07;;;;;;;11.13;8.73;;;;;;;;;;5060320;28;20211;-62
2023/07/10 08:10:36;;;;;;;9.98;7.85;;;;;;;;;;5068398;28;20711;-62
2023/07/10 08:13:04;;;;;;;11.30;8.20;;;;;;;;;;5067512;28;20225;-63
2023/07/10 08:15:31;;;;;;;12.93;7.88;;;;;;;;;;5068631;28;20301;-64
2023/07/10 08:17:58;;;;;;;8.07;7.28;;;;;;;;;;5068454;28;20211;-64
2023/07/10 08:20:25;;;;;;;8.98;7.85;;;;;;;;;;5068040;28;20223;-64
2023/07/10 08:22:52;;;;;;;7.82;6.88;;;;;;;;;;5066933;28;20215;-64
2023/07/10 08:25:19;;;;;;;8.45;7.30;;;;;;;;;;5067888;28;20218;-63
2023/07/10 08:27:48;;;;;;;7.47;6.80;;;;;;;;;;5068074;28;20203;-63
2023/07/10 08:30:15;;;;;;;7.82;7.03;;;;;;;;;;5058838;28;20203;-63
2023/07/10 08:32:42;;;;;;;7.82;6.68;;;;;;;;;;5048103;28;20211;-63
2023/07/10 08:35:09;;;;;;;8.68;6.63;;;;;;;;;;5054170;28;20600;-63
2023/07/10 08:37:37;;;;;;;7.50;6.75;;;;;;;;;;5068011;28;20226;-63
2023/07/10 08:40:04;;;;;;;8.75;7.28;;;;;;;;;;5067504;28;20637;-63
2023/07/10 08:42:32;;;;;;;8.45;7.32;;;;;;;;;;5062418;28;20231;-63
2023/07/10 08:45:01;;;;;;;7.90;6.38;;;;;;;;;;5052462;28;20200;-63
2023/07/10 08:47:32;;;;;;;9.35;7.22;;;;;;;;;;5047799;28;20625;-63
2023/07/10 08:50:04;;;;;;;8.07;6.20;;;;;;;;;;5065603;28;20211;-63
2023/07/10 08:52:33;;;;;;;8.75;6.10;;;;;;;;;;5067714;28;20214;-63
2023/07/10 08:55:01;;;;;;;8.32;6.50;;;;;;;;;;5055352;28;20226;-63
2023/07/10 08:57:31;;;;;;;11.20;7.05;;;;;;;;;;5047795;28;21016;-63
2023/07/10 09:00:00;;;;;;;6.63;6.05;;;;;;;;;;5044352;28;20238;-63
2023/07/10 09:02:36;;;;;;;8.60;6.47;;;;;;;;;;5045359;28;20210;-63
2023/07/10 09:05:04;;;;;;;8.77;6.50;;;;;;;;;;5066012;28;20241;-67
2023/07/10 09:07:35;;;;;;;6.03;5.43;;;;;;;;;;5067055;28;20210;-62
2023/07/10 09:10:03;;;;;;;8.02;6.03;;;;;;;;;;5047252;28;20727;-62
2023/07/10 09:12:34;;;;;;;5.60;5.18;;;;;;;;;;5047165;28;20230;-62
2023/07/10 09:15:03;;;;;;;5.68;5.10;;;;;;;;;;5047071;28;20211;-69
2023/07/10 09:17:34;;;;;;;5.35;4.85;;;;;;;;;;5053026;28;20281;-64
2023/07/10 09:20:03;;;;;;;5.40;5.00;;;;;;;;;;5062929;28;20678;-62
2023/07/10 09:22:32;;;;;;;5.50;4.97;;;;;;;;;;5047326;28;20210;-63
2023/07/10 09:24:59;;;;;;;8.52;5.13;;;;;;;;;;5047144;28;20260;-63
2023/07/10 09:27:26;;;;;;;6.63;4.80;;;;;;;;;;5050419;28;20262;-63
2023/07/10 09:29:53;;;;;;;4.75;4.43;;;;;;;;;;5055691;28;20615;-64
2023/07/10 09:32:21;;;;;;;6.78;4.97;;;;;;;;;;5056199;28;20203;-64
2023/07/10 09:34:51;;;;;;;5.10;4.60;;;;;;;;;;5056881;28;20298;-62
2023/07/10 09:37:20;;;;;;;5.38;4.97;;;;;;;;;;5051075;28;20208;-58
2023/07/10 09:39:47;;;;;;;5.00;4.70;;;;;;;;;;5051362;28;20259;-60
2023/07/10 09:42:15;;;;;;;5.03;4.43;;;;;;;;;;5052460;28;20229;-60
2023/07/10 09:44:47;;;;;;;4.93;4.50;;;;;;;;;;5051122;28;20614;-61
2023/07/10 09:47:15;;;;;;;5.22;4.82;;;;;;;;;;5050283;28;20203;-61
2023/07/10 09:49:46;;;;;;;4.72;4.43;;;;;;;;;;5049448;28;20203;-60
2023/07/10 09:52:17;;;;;;;4.95;4.65;;;;;;;;;;5047686;28;20269;-58
2023/07/10 09:54:44;;;;;;;4.68;4.28;;;;;;;;;;5052860;28;20306;-58
2023/07/10 09:57:12;;;;;;;4.32;4.03;;;;;;;;;;5063336;28;20614;-58
2023/07/10 09:59:39;;;;;;;6.30;3.63;;;;;;;;;;5062310;28;20211;-58
2023/07/10 10:02:16;;;;;;;4.47;4.00;;;;;;;;;;5070590;28;20241;-59
2023/07/10 10:04:44;;;;;;;4.32;3.92;;;;;;;;;;5056129;28;20242;-58
2023/07/10 10:07:16;;;;;;;4.47;4.18;;;;;;;;;;5069805;28;20612;-58
2023/07/10 10:09:44;;;;;;;4.60;4.20;;;;;;;;;;5068659;28;20472;-58
2023/07/10 10:12:14;;;;;;;4.40;4.10;;;;;;;;;;5054923;28;20214;-58
2023/07/10 10:14:44;;;;;;;6.40;4.40;;;;;;;;;;5060383;28;20215;-58
2023/07/10 10:17:13;;;;;;;4.35;3.95;;;;;;;;;;5041524;28;20673;-58
2023/07/10 10:19:42;;;;;;;4.47;4.00;;;;;;;;;;5050857;28;20207;-58
2023/07/10 10:22:10;;;;;;;5.05;4.40;;;;;;;;;;5046042;28;20220;-58
2023/07/10 10:24:37;;;;;;;4.20;3.90;;;;;;;;;;5049651;28;20306;-58
2023/07/10 10:27:30;;;;;;;4.30;3.92;;;;;;;;;;5048150;28;20296;-58
2023/07/10 10:30:04;;;;;;;4.15;3.85;;;;;;;;;;5050026;28;20265;-58
2023/07/10 10:32:36;;;;;;;4.50;4.07;;;;;;;;;;5049945;28;20207;-58
2023/07/10 10:35:09;;;;;;;3.90;3.60;;;;;;;;;;5050150;28;20226;-59
2023/07/10 10:37:40;;;;;;;4.07;3.70;;;;;;;;;;5049796;28;20238;-59
2023/07/10 10:40:14;;;;;;;4.22;3.90;;;;;;;;;;5050052;28;20739;-58
2023/07/10 10:42:46;;;;;;;3.40;3.30;;;;;;;;;;5050113;28;20323;-59
2023/07/10 10:45:16;;;;;;;4.82;4.35;;;;;;;;;;5068672;28;20332;-59
2023/07/10 10:47:50;;;;;;;4.50;4.07;;;;;;;;;;5070121;28;20210;-59
2023/07/10 10:50:31;;;;;;;3.67;3.47;;;;;;;;;;5069321;28;20626;-59
2023/07/10 10:53:05;;;;;;;3.78;3.58;;;;;;;;;;5067690;28;20211;-59
2023/07/10 10:55:35;;;;;;;3.38;3.28;;;;;;;;;;5070013;28;20317;-59
2023/07/10 10:58:15;;;;;;;3.20;3.10;;;;;;;;;;5069259;28;20275;-59
2023/07/10 11:01:00;;;;;;;3.20;3.05;;;;;;;;;;5049525;28;20223;-59
2023/07/10 11:03:29;;;;;;;4.20;3.80;;;;;;;;;;5049612;28;20203;-59
2023/07/10 11:05:59;;;;;;;3.70;3.50;;;;;;;;;;5049329;28;20245;-59
2023/07/10 11:08:31;;;;;;;4.35;3.97;;;;;;;;;;5047508;28;20207;-59
2023/07/10 11:10:58;;;;;;;3.85;3.65;;;;;;;;;;5049744;28;20210;-59
2023/07/10 11:13:31;;;;;;;3.63;3.40;;;;;;;;;;5062718;28;20932;-62
2023/07/10 11:15:59;;;;;;;3.65;3.35;;;;;;;;;;5069550;28;20206;-58
2023/07/10 11:18:26;;;;;;;4.38;4.05;;;;;;;;;;5068902;28;20207;-60
2023/07/10 11:20:53;;;;;;;4.55;3.92;;;;;;;;;;5050600;28;20560;-59
2023/07/10 11:23:29;;;;;;;4.15;3.85;;;;;;;;;;5054190;28;20222;-59
2023/07/10 11:26:00;;;;;;;4.05;3.75;;;;;;;;;;5067138;28;20446;-59
2023/07/10 11:28:31;;;;;;;3.80;3.47;;;;;;;;;;5068957;28;20206;-59
2023/07/10 11:31:16;;;;;;;3.97;3.67;;;;;;;;;;5066170;28;20218;-60
2023/07/10 11:33:44;;;;;;;3.92;3.55;;;;;;;;;;5058709;28;20237;-60
2023/07/10 11:36:12;;;;;;;5.38;3.70;;;;;;;;;;5068458;28;20256;-60
2023/07/10 11:38:55;;;;;;;6.07;3.25;;;;;;;;;;5067945;28;20644;-60
2023/07/10 11:41:25;;;;;;;3.35;3.15;;;;;;;;;;5062262;28;20313;-60
2023/07/10 11:44:13;;;;;;;3.88;3.58;;;;;;;;;;5068713;28;20234;-60
2023/07/10 11:46:56;;;;;;;3.33;3.13;;;;;;;;;;5068611;28;20491;-60
2023/07/10 11:49:23;;;;;;;3.45;3.22;;;;;;;;;;5068594;28;20267;-60
2023/07/10 11:52:08;;;;;;;3.83;3.50;;;;;;;;;;5068491;28;20203;-60
2023/07/10 11:54:39;;;;;;;3.15;2.80;;;;;;;;;;5067283;28;20210;-60
2023/07/10 11:57:11;;;;;;;3.05;2.95;;;;;;;;;;5068205;28;20213;-60
2023/07/10 11:59:46;;;;;;;3.22;3.03;;;;;;;;;;5068178;28;20579;-60
2023/07/10 12:02:25;;;;;;;3.03;2.92;;;;;;;;;;5067986;28;20226;-60
2023/07/10 12:04:52;;;;;;;3.55;3.25;;;;;;;;;;5068238;28;20246;-60
2023/07/10 12:07:19;;;;;;;3.70;3.45;;;;;;;;;;5068200;28;20206;-60
2023/07/10 12:09:50;;;;;;;3.20;3.10;;;;;;;;;;5068146;28;20207;-60
2023/07/10 12:12:17;;;;;;;3.22;3.13;;;;;;;;;;5067807;28;20230;-60
2023/07/10 12:14:46;;;;;;;3.17;3.00;;;;;;;;;;5067935;28;20586;-59
2023/07/10 12:17:16;;;;;;;3.30;3.10;;;;;;;;;;5067229;28;20218;-60
2023/07/10 12:19:44;;;;;;;3.35;3.05;;;;;;;;;;5068147;28;20794;-60
2023/07/10 12:22:19;;;;;;;4.20;2.92;;;;;;;;;;5067714;28;20261;-60
2023/07/10 12:24:49;;;;;;;3.60;3.42;;;;;;;;;;5068146;28;20209;-60
2023/07/10 12:27:17;;;;;;;4.10;3.72;;;;;;;;;;5059862;28;20203;-60
2023/07/10 12:29:52;;;;;;;5.90;5.30;;;;;;;;;;5048105;28;20203;-61
2023/07/10 12:32:19;;;;;;;7.78;6.25;;;;;;;;;;5066393;28;20198;-60
2023/07/10 12:34:49;;;;;;;6.88;5.20;;;;;;;;;;5067551;28;20688;-59
2023/07/10 12:37:17;;;;;;;5.05;4.65;;;;;;;;;;5067707;28;20226;-59
2023/07/10 12:39:47;;;;;;;4.30;4.00;;;;;;;;;;5066718;28;20198;-60
2023/07/10 12:42:25;;;;;;;4.70;4.38;;;;;;;;;;5067322;28;20234;-60
2023/07/10 12:44:53;;;;;;;4.00;3.70;;;;;;;;;;5067293;28;20206;-60
2023/07/10 12:47:20;;;;;;;5.57;5.07;;;;;;;;;;5067791;28;20275;-60
2023/07/10 12:49:51;;;;;;;4.38;4.07;;;;;;;;;;5063849;28;20605;-60
2023/07/10 12:52:18;;;;;;;5.00;4.70;;;;;;;;;;5064357;28;20202;-60
2023/07/10 12:54:46;;;;;;;4.80;4.45;;;;;;;;;;5066634;28;20221;-59
2023/07/10 12:57:15;;;;;;;4.85;4.28;;;;;;;;;;5067425;28;20210;-59
2023/07/10 12:59:42;;;;;;;4.63;4.32;;;;;;;;;;5067374;28;20637;-59
2023/07/10 13:02:16;;;;;;;4.43;3.97;;;;;;;;;;5066443;28;20260;-59
2023/07/10 13:04:47;;;;;;;4.43;4.03;;;;;;;;;;5067274;28;20242;-59
2023/07/10 13:07:16;;;;;;;4.47;4.18;;;;;;;;;;5067331;28;20199;-60
2023/07/10 13:09:51;;;;;;;4.30;3.90;;;;;;;;;;5057621;28;20223;-59
2023/07/10 13:12:21;;;;;;;4.50;4.10;;;;;;;;;;5055222;28;20195;-59
2023/07/10 13:14:49;;;;;;;4.53;4.13;;;;;;;;;;5059649;28;20203;-59
2023/07/10 13:17:20;;;;;;;4.70;4.32;;;;;;;;;;5059711;28;20214;-59
2023/07/10 13:19:48;;;;;;;4.78;4.18;;;;;;;;;;5054958;28;20577;-59
2023/07/10 13:22:16;;;;;;;4.32;4.00;;;;;;;;;;5057929;28;20273;-59
2023/07/10 13:24:43;;;;;;;4.03;3.63;;;;;;;;;;5067141;28;20527;-59
2023/07/10 13:27:13;;;;;;;3.67;3.47;;;;;;;;;;5060281;28;20295;-59
2023/07/10 13:29:40;;;;;;;4.32;4.00;;;;;;;;;;5047579;28;20204;-59
2023/07/10 13:32:11;;;;;;;3.33;3.13;;;;;;;;;;5051879;28;20206;-60
2023/07/10 13:34:39;;;;;;;3.53;3.38;;;;;;;;;;5047679;28;20207;-58
2023/07/10 13:37:14;;;;;;;3.88;3.58;;;;;;;;;;5060656;28;20273;-59
2023/07/10 13:39:41;;;;;;;3.78;3.47;;;;;;;;;;5068310;28;20214;-68
2023/07/10 13:42:11;;;;;;;3.25;3.15;;;;;;;;;;5058752;28;20610;-63
2023/07/10 13:44:38;;;;;;;3.58;3.33;;;;;;;;;;5053582;28;20211;-62
2023/07/10 13:47:12;;;;;;;3.38;3.13;;;;;;;;;;5049904;28;20208;-63
2023/07/10 13:49:40;;;;;;;3.88;3.58;;;;;;;;;;5047560;28;20600;-63
2023/07/10 13:52:12;;;;;;;3.38;3.15;;;;;;;;;;5064880;28;20558;-62
2023/07/10 13:54:39;;;;;;;4.07;3.88;;;;;;;;;;5066661;28;20550;-64
2023/07/10 13:57:13;;;;;;;3.63;3.35;;;;;;;;;;5066079;28;20552;-63
2023/07/10 13:59:40;;;;;;;3.35;3.15;;;;;;;;;;5057069;28;20204;-62
2023/07/10 14:02:17;;;;;;;3.15;2.95;;;;;;;;;;5057133;28;20786;-62
2023/07/10 14:04:45;;;;;;;3.15;2.95;;;;;;;;;;5047076;28;20312;-61
2023/07/10 14:07:15;;;;;;;2.50;2.40;;;;;;;;;;5059811;28;20229;-62
2023/07/10 14:09:42;;;;;;;4.72;2.92;;;;;;;;;;5066722;28;20272;-62
2023/07/10 14:12:13;;;;;;;2.70;2.60;;;;;;;;;;5062772;28;20195;-62
2023/07/10 14:14:40;;;;;;;2.70;2.47;;;;;;;;;;5065294;28;20304;-66
2023/07/10 14:17:11;;;;;;;2.47;2.40;;;;;;;;;;5066489;28;20214;-66
2023/07/10 14:19:38;;;;;;;3.30;3.00;;;;;;;;;;5067482;28;20203;-66
2023/07/10 14:22:11;;;;;;;2.30;2.20;;;;;;;;;;5069310;28;20226;-66
2023/07/10 14:24:38;;;;;;;2.30;2.20;;;;;;;;;;5069478;28;20214;-65
2023/07/10 14:27:22;;;;;;;2.78;2.58;;;;;;;;;;5068802;28;20704;-65
2023/07/10 14:29:50;;;;;;;2.33;2.22;;;;;;;;;;5066933;28;20630;-65
2023/07/10 14:32:18;;;;;;;2.55;2.40;;;;;;;;;;5069846;28;20252;-64
2023/07/10 14:34:45;;;;;;;1.80;1.80;;;;;;;;;;5070142;28;20306;-64
2023/07/10 14:37:15;;;;;;;1.90;1.90;;;;;;;;;;5070040;28;20306;-64
2023/07/10 14:39:42;;;;;;;2.60;2.50;;;;;;;;;;5070664;28;20222;-65
2023/07/10 14:42:13;;;;;;;2.22;2.13;;;;;;;;;;5068561;28;20232;-65
2023/07/10 14:44:40;;;;;;;2.22;2.17;;;;;;;;;;5070014;28;20287;-65
2023/07/10 14:47:18;;;;;;;2.65;2.45;;;;;;;;;;5070148;28;20728;-64
2023/07/10 14:49:45;;;;;;;2.20;2.10;;;;;;;;;;5070113;28;20210;-64
2023/07/10 14:52:17;;;;;;;2.10;1.90;;;;;;;;;;5069995;28;20720;-65
2023/07/10 14:54:44;;;;;;;2.30;2.20;;;;;;;;;;5067834;28;20275;-65